Time;durP1;ratioP1;P1;durP2;ratioP2;P2;SDS_P1;SDS_P2;PMS_P1;PMS_P2;Temp;Humidity;BMP_temperature;BMP_pressure;BME280_temperature;BME280_humidity;BME280_pressure;Samples;Min_cycle;Max_cycle;Signal;HPM_P1;HPM_P2
2022/12/03 00:01:04;;;;;;;64.20;24.10;;;;;;;-0.13;85.56;101241.66;103601;1277;22609;-59
2022/12/03 00:03:35;;;;;;;72.70;24.90;;;;;;;-0.12;85.60;101239.77;103572;1275;23183;-57
2022/12/03 00:06:07;;;;;;;72.70;26.80;;;;;;;-0.12;85.58;101238.13;103592;1303;26559;-59
2022/12/03 00:08:39;;;;;;;78.40;27.40;;;;;;;-0.12;85.64;101237.51;103489;1302;25281;-59
2022/12/03 00:11:10;;;;;;;65.80;25.40;;;;;;;-0.12;85.65;101234.45;103579;1282;22455;-57
2022/12/03 00:13:42;;;;;;;66.70;24.30;;;;;;;-0.14;85.61;101231.13;103532;1271;25447;-59
2022/12/03 00:16:13;;;;;;;67.40;25.10;;;;;;;-0.15;85.60;101229.88;103328;1279;24408;-56
2022/12/03 00:18:44;;;;;;;67.30;24.20;;;;;;;-0.14;85.76;101234.98;103353;1278;22454;-57
2022/12/03 00:21:16;;;;;;;71.60;26.60;;;;;;;-0.13;85.92;101230.36;103310;1279;25355;-57
2022/12/03 00:23:47;;;;;;;68.40;24.60;;;;;;;-0.12;85.90;101235.85;103518;1290;26483;-58
2022/12/03 00:26:19;;;;;;;60.70;23.50;;;;;;;-0.12;85.82;101236.33;103712;1288;26697;-58
2022/12/03 00:28:50;;;;;;;63.10;24.70;;;;;;;-0.10;85.85;101234.84;103223;1282;22473;-59
2022/12/03 00:31:22;;;;;;;70.70;25.60;;;;;;;-0.11;85.72;101232.42;103517;1303;25360;-59
2022/12/03 00:33:54;;;;;;;67.10;24.60;;;;;;;-0.13;85.74;101228.09;103492;1277;23876;-58
2022/12/03 00:36:25;;;;;;;65.50;23.90;;;;;;;-0.14;85.82;101227.21;103472;1279;25684;-59
2022/12/03 00:38:59;;;;;;;63.90;25.00;;;;;;;-0.13;85.78;101227.39;103407;1271;22473;-57
2022/12/03 00:41:30;;;;;;;66.40;24.20;;;;;;;-0.14;85.82;101229.42;103493;1286;25273;-57
2022/12/03 00:44:02;;;;;;;64.60;22.50;;;;;;;-0.13;85.92;101230.44;103394;1275;22473;-57
2022/12/03 00:46:33;;;;;;;76.90;25.80;;;;;;;-0.11;85.94;101230.14;103423;1276;22647;-55
2022/12/03 00:49:05;;;;;;;66.70;24.80;;;;;;;-0.10;85.89;101229.98;103218;1282;22859;-57
2022/12/03 00:51:36;;;;;;;73.60;25.10;;;;;;;-0.11;86.04;101228.73;103554;1279;24556;-61
2022/12/03 00:54:07;;;;;;;60.90;21.90;;;;;;;-0.10;85.96;101224.57;103506;1278;22457;-57
2022/12/03 00:56:38;;;;;;;70.10;24.50;;;;;;;-0.11;85.97;101225.36;103491;1279;25196;-58
2022/12/03 00:59:10;;;;;;;62.10;23.80;;;;;;;-0.12;85.93;101227.77;103484;1303;25497;-58
2022/12/03 01:01:42;;;;;;;68.50;23.70;;;;;;;-0.13;85.92;101222.21;103331;1303;22513;-57
2022/12/03 01:04:13;;;;;;;66.80;23.80;;;;;;;-0.13;86.08;101213.42;103312;1282;22951;-58
2022/12/03 01:06:50;;;;;;;67.20;24.40;;;;;;;-0.13;86.21;101218.84;103336;1302;22480;-58
2022/12/03 01:09:21;;;;;;;73.90;26.20;;;;;;;-0.14;86.03;101216.31;103463;1278;24269;-57
2022/12/03 01:11:53;;;;;;;62.40;23.00;;;;;;;-0.15;86.09;101213.41;103503;1288;22527;-59
2022/12/03 01:14:24;;;;;;;68.60;24.90;;;;;;;-0.15;86.13;101212.71;103305;1295;22584;-59
2022/12/03 01:16:55;;;;;;;63.70;22.50;;;;;;;-0.15;86.20;101219.52;103419;1303;22469;-57
2022/12/03 01:19:26;;;;;;;65.40;23.90;;;;;;;-0.15;86.15;101221.64;103703;1264;22476;-58
2022/12/03 01:21:58;;;;;;;64.10;24.80;;;;;;;-0.16;86.19;101220.39;103396;1289;23001;-58
2022/12/03 01:24:29;;;;;;;61.00;23.00;;;;;;;-0.16;86.35;101220.79;103525;1279;22465;-60
2022/12/03 01:27:00;;;;;;;64.90;23.40;;;;;;;-0.14;86.45;101222.59;103541;1287;22481;-59
2022/12/03 01:29:32;;;;;;;72.60;24.90;;;;;;;-0.13;86.44;101217.20;103747;1274;24280;-59
2022/12/03 01:32:19;;;;;;;68.40;25.80;;;;;;;-0.12;86.43;101214.45;103509;1301;22465;-59
2022/12/03 01:34:52;;;;;;;69.60;25.80;;;;;;;-0.12;86.40;101215.94;103288;1303;22458;-60
2022/12/03 01:37:25;;;;;;;71.60;25.00;;;;;;;-0.10;86.50;101213.20;103277;1282;26601;-57
2022/12/03 01:39:57;;;;;;;58.40;22.30;;;;;;;-0.09;86.38;101217.52;103393;1277;22522;-58
2022/12/03 01:42:29;;;;;;;68.50;25.20;;;;;;;-0.12;86.35;101218.69;103135;1278;349135;-59
2022/12/03 01:45:02;;;;;;;66.60;26.80;;;;;;;-0.14;86.40;101213.02;103293;1278;22465;-57
2022/12/03 01:47:36;;;;;;;66.20;23.40;;;;;;;-0.13;86.41;101215.94;103537;1303;24231;-56
2022/12/03 01:50:17;;;;;;;65.60;23.70;;;;;;;-0.13;86.44;101213.13;103531;1279;25447;-59
2022/12/03 01:52:48;;;;;;;65.00;22.50;;;;;;;-0.13;86.59;101208.02;103463;1278;22667;-58
2022/12/03 01:55:23;;;;;;;67.80;23.80;;;;;;;-0.13;86.48;101208.65;103432;1278;24578;-58
2022/12/03 01:57:59;;;;;;;61.20;21.60;;;;;;;-0.12;86.43;101206.20;103340;1278;22468;-57
2022/12/03 02:00:31;;;;;;;59.10;23.70;;;;;;;-0.12;86.48;101207.08;103559;1280;22733;-59
2022/12/03 02:03:08;;;;;;;62.40;21.10;;;;;;;-0.12;86.41;101207.46;103779;1282;22469;-57
2022/12/03 02:05:40;;;;;;;62.40;22.80;;;;;;;-0.13;86.28;101205.05;103421;1278;24309;-56
2022/12/03 02:08:32;;;;;;;62.60;20.50;;;;;;;-0.13;86.39;101209.90;103523;1279;22535;-57
2022/12/03 02:11:08;;;;;;;57.70;21.20;;;;;;;-0.15;86.33;101208.48;103397;1301;22471;-59
2022/12/03 02:13:40;;;;;;;55.80;19.80;;;;;;;-0.15;86.45;101201.95;103407;1278;22604;-56
2022/12/03 02:16:12;;;;;;;56.60;19.00;;;;;;;-0.15;86.42;101200.39;103441;1280;22488;-58
2022/12/03 02:18:44;;;;;;;58.70;22.00;;;;;;;-0.16;86.55;101202.91;103529;1277;26454;-57
2022/12/03 02:21:22;;;;;;;59.20;23.20;;;;;;;-0.13;86.59;101203.23;103396;1278;22461;-60
2022/12/03 02:24:01;;;;;;;64.30;22.40;;;;;;;-0.13;86.54;101205.58;103583;1279;24249;-58
2022/12/03 02:26:33;;;;;;;61.30;21.80;;;;;;;-0.12;86.53;101201.27;103316;1303;21890;-60
2022/12/03 02:29:05;;;;;;;69.10;23.90;;;;;;;-0.13;86.41;101200.48;103578;1290;22647;-54
2022/12/03 02:31:37;;;;;;;60.30;21.20;;;;;;;-0.15;86.42;101195.70;103507;1285;22529;-57
2022/12/03 02:34:10;;;;;;;67.70;22.70;;;;;;;-0.17;86.42;101193.41;103567;1282;22646;-58
2022/12/03 02:36:42;;;;;;;63.20;24.10;;;;;;;-0.16;86.62;101192.94;103475;1279;22531;-58
2022/12/03 02:39:14;;;;;;;57.40;20.80;;;;;;;-0.17;86.58;101196.15;103331;1282;26741;-57
2022/12/03 02:44:35;;;;;;;65.70;23.00;;;;;;;-0.18;86.60;101192.30;103338;1285;22738;-59
2022/12/03 02:47:10;;;;;;;54.60;21.00;;;;;;;-0.17;86.80;101196.54;103417;1279;25511;-60
2022/12/03 02:49:42;;;;;;;60.30;20.70;;;;;;;-0.16;86.73;101194.83;103372;1301;22473;-55
2022/12/03 02:52:13;;;;;;;55.30;20.20;;;;;;;-0.15;86.78;101195.84;103398;1277;22464;-56
2022/12/03 02:54:46;;;;;;;55.50;20.70;;;;;;;-0.14;86.83;101190.29;103522;1301;22524;-55
2022/12/03 02:57:18;;;;;;;60.60;22.00;;;;;;;-0.13;86.86;101196.04;103467;1278;22522;-60
2022/12/03 02:59:49;;;;;;;54.70;21.20;;;;;;;-0.13;86.80;101193.12;103466;1283;25442;-59
2022/12/03 03:02:21;;;;;;;54.30;20.40;;;;;;;-0.13;86.74;101192.10;103434;1276;24249;-56
2022/12/03 03:04:52;;;;;;;55.80;21.20;;;;;;;-0.14;86.81;101189.91;103433;1285;22460;-58
2022/12/03 03:07:24;;;;;;;57.40;19.70;;;;;;;-0.14;86.81;101188.80;103420;1278;22476;-57
2022/12/03 03:09:55;;;;;;;55.10;20.40;;;;;;;-0.13;86.92;101193.51;103526;1278;22487;-59
2022/12/03 03:12:27;;;;;;;52.70;19.00;;;;;;;-0.10;86.85;101196.58;103426;1277;24321;-57
2022/12/03 03:14:59;;;;;;;54.30;19.10;;;;;;;-0.10;86.86;101195.72;103365;1279;23207;-57
2022/12/03 03:17:31;;;;;;;49.30;18.60;;;;;;;-0.10;86.80;101191.80;103409;1303;22466;-57
2022/12/03 03:20:08;;;;;;;55.60;21.70;;;;;;;-0.10;86.74;101192.42;103556;1294;23195;-57
2022/12/03 03:22:42;;;;;;;54.90;21.30;;;;;;;-0.12;86.85;101191.79;103413;1289;25490;-61
2022/12/03 03:25:19;;;;;;;58.30;20.70;;;;;;;-0.12;87.07;101187.64;103457;1277;22831;-59
2022/12/03 03:27:51;;;;;;;54.40;20.90;;;;;;;-0.12;86.90;101182.70;103713;1285;25295;-57
2022/12/03 03:30:22;;;;;;;53.40;20.50;;;;;;;-0.13;86.78;101183.08;103544;1279;22490;-57
2022/12/03 03:32:56;;;;;;;57.80;21.90;;;;;;;-0.13;87.01;101182.52;103709;1285;24261;-59
2022/12/03 03:35:28;;;;;;;60.60;20.40;;;;;;;-0.13;86.96;101184.34;103520;1277;23881;-57
2022/12/03 03:38:01;;;;;;;58.60;21.40;;;;;;;-0.13;87.03;101180.65;103573;1284;25414;-59
2022/12/03 03:40:32;;;;;;;56.00;19.60;;;;;;;-0.13;87.13;101177.67;103416;1284;26036;-54
2022/12/03 03:43:06;;;;;;;63.00;22.90;;;;;;;-0.13;87.12;101172.42;103515;1281;24412;-57
2022/12/03 03:45:37;;;;;;;57.30;22.50;;;;;;;-0.11;87.18;101172.83;103427;1278;24381;-56
2022/12/03 03:48:09;;;;;;;58.60;22.60;;;;;;;-0.07;87.18;101168.45;103514;1303;22489;-57
2022/12/03 03:50:42;;;;;;;58.10;23.00;;;;;;;-0.08;87.08;101162.48;103445;1284;25376;-58
2022/12/03 03:53:15;;;;;;;55.80;21.10;;;;;;;-0.09;87.05;101163.96;103496;1281;25465;-57
2022/12/03 03:55:47;;;;;;;53.10;21.40;;;;;;;-0.08;87.21;101162.46;103359;1303;22474;-56
2022/12/03 03:58:18;;;;;;;62.70;22.30;;;;;;;-0.08;87.18;101162.23;103479;1277;22603;-58
2022/12/03 04:00:50;;;;;;;58.50;22.50;;;;;;;-0.09;87.18;101154.48;103366;1283;25645;-57
2022/12/03 04:03:21;;;;;;;58.30;22.70;;;;;;;-0.10;87.19;101158.00;103430;1277;22884;-58
2022/12/03 04:05:54;;;;;;;62.80;23.00;;;;;;;-0.09;87.39;101149.29;103363;1279;22481;-58
2022/12/03 04:08:26;;;;;;;55.30;22.30;;;;;;;-0.07;87.40;101146.02;103445;1277;22741;-57
2022/12/03 04:13:46;;;;;;;65.20;23.80;;;;;;;-0.02;87.36;101145.95;103400;1303;22464;-58
2022/12/03 04:16:17;;;;;;;64.50;22.20;;;;;;;-0.04;87.46;101141.23;103389;1288;25287;-58
2022/12/03 04:18:49;;;;;;;64.70;21.80;;;;;;;-0.03;87.44;101142.51;103219;1285;22460;-58
2022/12/03 04:24:15;;;;;;;56.20;20.90;;;;;;;-0.04;87.34;101147.36;102796;1307;23083;-57
2022/12/03 04:29:35;;;;;;;59.60;24.70;;;;;;;-0.03;87.46;101145.80;102858;1300;22477;-59
2022/12/03 04:37:46;;;;;;;52.90;21.30;;;;;;;0.01;87.54;101142.36;102832;1307;22477;-59
2022/12/03 04:43:20;;;;;;;64.10;22.70;;;;;;;-0.02;87.37;101147.76;102433;1297;22485;-56
2022/12/03 04:45:51;;;;;;;62.10;23.20;;;;;;;-0.03;87.47;101150.90;102493;1296;24249;-56
2022/12/03 04:48:23;;;;;;;58.20;21.60;;;;;;;-0.04;87.53;101156.61;102653;1289;22529;-58
2022/12/03 04:50:55;;;;;;;59.10;21.90;;;;;;;-0.05;87.60;101154.27;102639;1310;24271;-56
2022/12/03 04:53:28;;;;;;;65.40;21.80;;;;;;;-0.03;87.79;101151.91;102526;1289;24431;-57
2022/12/03 04:56:02;;;;;;;57.80;21.80;;;;;;;0.00;87.84;101152.48;102484;1314;24983;-55
2022/12/03 04:58:34;;;;;;;66.40;23.10;;;;;;;0.04;87.63;101154.85;102528;1290;22746;-56
2022/12/03 05:01:05;;;;;;;64.80;21.70;;;;;;;0.03;87.58;101153.12;102628;1291;25415;-56
2022/12/03 05:03:37;;;;;;;59.40;21.00;;;;;;;0.03;87.68;101153.04;103060;1287;24374;-56
2022/12/03 05:06:09;;;;;;;59.50;21.70;;;;;;;0.03;87.65;101151.95;102954;1287;22472;-60
2022/12/03 05:08:40;;;;;;;64.40;23.00;;;;;;;0.04;87.72;101148.27;102964;1290;24964;-56
2022/12/03 05:11:12;;;;;;;62.50;21.90;;;;;;;0.05;87.72;101143.40;102895;1298;24494;-58
2022/12/03 05:13:43;;;;;;;67.40;23.10;;;;;;;0.06;87.63;101137.84;103013;1306;22467;-58
2022/12/03 05:16:15;;;;;;;67.30;23.80;;;;;;;0.05;87.60;101138.39;102877;1286;25364;-59
2022/12/03 05:18:46;;;;;;;67.00;22.90;;;;;;;0.04;87.56;101143.09;103156;1291;22484;-56
2022/12/03 05:21:18;;;;;;;60.10;21.90;;;;;;;0.04;87.58;101144.89;103548;1282;22462;-57
2022/12/03 05:23:50;;;;;;;66.00;23.00;;;;;;;0.05;87.54;101146.93;103464;1279;22516;-57
2022/12/03 05:26:22;;;;;;;70.00;23.60;;;;;;;0.06;87.74;101143.02;103455;1278;22470;-58
2022/12/03 05:28:53;;;;;;;65.30;22.00;;;;;;;0.08;87.63;101145.06;103448;1296;22592;-58
2022/12/03 05:31:25;;;;;;;67.40;23.70;;;;;;;0.07;87.72;101145.30;103316;1278;24307;-56
2022/12/03 05:33:56;;;;;;;62.40;21.90;;;;;;;0.07;87.65;101139.17;103209;1285;22537;-57
2022/12/03 05:36:27;;;;;;;66.20;24.20;;;;;;;0.07;87.63;101139.48;103416;1274;22465;-58
2022/12/03 05:39:01;;;;;;;68.30;24.30;;;;;;;0.07;87.71;101139.48;103392;1279;22460;-60
2022/12/03 05:44:21;;;;;;;66.10;24.20;;;;;;;0.07;87.81;101142.00;103337;1278;22772;-57
2022/12/03 05:46:52;;;;;;;62.90;22.00;;;;;;;0.08;87.84;101142.48;103389;1302;24399;-58
2022/12/03 05:49:24;;;;;;;60.20;23.20;;;;;;;0.07;87.88;101141.29;103692;1277;22574;-57
2022/12/03 05:51:55;;;;;;;67.40;22.90;;;;;;;0.06;87.92;101140.81;103454;1278;25647;-57
2022/12/03 05:54:26;;;;;;;63.60;22.20;;;;;;;0.07;87.92;101139.48;103457;1278;22457;-58
2022/12/03 05:56:58;;;;;;;62.90;22.20;;;;;;;0.07;87.96;101140.27;103582;1302;24426;-57
2022/12/03 05:59:29;;;;;;;62.00;21.50;;;;;;;0.06;88.02;101137.14;103293;1279;22496;-59
2022/12/03 06:02:01;;;;;;;60.40;20.90;;;;;;;0.06;87.93;101138.08;103561;1280;22476;-57
2022/12/03 06:04:32;;;;;;;61.10;20.90;;;;;;;0.08;87.96;101137.70;103471;1282;22485;-57
2022/12/03 06:07:04;;;;;;;69.00;22.30;;;;;;;0.08;88.04;101140.59;103308;1275;22724;-57
2022/12/03 06:09:35;;;;;;;58.90;23.60;;;;;;;0.07;87.97;101142.70;103455;1278;24427;-58
2022/12/03 06:12:08;;;;;;;67.10;24.30;;;;;;;0.08;88.14;101144.75;103414;1278;23070;-59
2022/12/03 06:14:43;;;;;;;69.20;24.50;;;;;;;0.08;88.29;101144.98;103308;1275;25542;-57
2022/12/03 06:17:15;;;;;;;62.60;20.90;;;;;;;0.09;88.26;101145.68;103430;1279;22471;-58
2022/12/03 06:19:47;;;;;;;66.40;24.10;;;;;;;0.09;88.20;101148.05;103407;1279;25321;-59
2022/12/03 06:22:19;;;;;;;55.40;22.60;;;;;;;0.09;88.27;101150.70;103454;1274;25321;-55
2022/12/03 06:24:50;;;;;;;58.70;22.50;;;;;;;0.10;88.17;101157.23;103483;1278;26974;-55
2022/12/03 06:27:22;;;;;;;61.60;24.30;;;;;;;0.10;88.25;101152.91;103448;1301;22501;-57
2022/12/03 06:29:54;;;;;;;64.50;23.00;;;;;;;0.12;88.39;101152.30;103402;1276;22473;-58
2022/12/03 06:32:25;;;;;;;64.80;23.90;;;;;;;0.14;88.41;101149.71;103496;1279;24279;-66
2022/12/03 06:34:57;;;;;;;57.60;20.30;;;;;;;0.15;88.37;101148.15;103670;1288;22423;-57
2022/12/03 06:37:29;;;;;;;62.70;22.40;;;;;;;0.15;88.31;101149.80;103428;1280;22663;-56
2022/12/03 06:40:01;;;;;;;60.90;22.80;;;;;;;0.16;88.34;101149.02;103409;1271;22509;-56
2022/12/03 06:42:32;;;;;;;57.50;22.50;;;;;;;0.18;88.35;101149.73;103385;1303;22495;-56
2022/12/03 06:45:04;;;;;;;65.20;23.70;;;;;;;0.19;88.29;101146.98;103499;1282;25453;-57
2022/12/03 06:47:36;;;;;;;69.00;26.90;;;;;;;0.21;88.26;101140.41;103362;1278;25374;-58
2022/12/03 06:50:10;;;;;;;77.70;32.10;;;;;;;0.21;88.23;101140.09;105365;1280;22470;-57
2022/12/03 06:52:41;;;;;;;78.20;33.30;;;;;;;0.21;88.27;101148.80;103377;1302;24346;-56
2022/12/03 06:55:16;;;;;;;78.10;36.70;;;;;;;0.22;88.30;101150.60;104301;1286;22467;-57
2022/12/03 06:57:48;;;;;;;82.00;34.90;;;;;;;0.23;88.30;101150.54;103543;1277;22500;-54
2022/12/03 07:00:21;;;;;;;66.30;29.70;;;;;;;0.24;88.28;101149.67;103429;1277;22583;-60
2022/12/03 07:02:53;;;;;;;65.30;26.10;;;;;;;0.24;88.38;101150.38;103337;1282;24296;-56
2022/12/03 07:05:24;;;;;;;58.10;22.30;;;;;;;0.25;88.30;101144.50;103491;1275;23662;-57
2022/12/03 07:07:56;;;;;;;58.80;23.30;;;;;;;0.26;88.27;101144.97;103577;1303;25106;-58
2022/12/03 07:10:30;;;;;;;64.00;24.60;;;;;;;0.26;88.30;101142.07;103379;1279;22481;-55
2022/12/03 07:13:02;;;;;;;59.80;23.40;;;;;;;0.25;88.30;101148.96;103369;1278;26663;-58
2022/12/03 07:15:34;;;;;;;57.70;23.60;;;;;;;0.26;88.39;101141.77;103444;1279;22521;-56
2022/12/03 07:18:09;;;;;;;58.90;21.80;;;;;;;0.28;88.53;101141.44;103397;1279;25630;-57
2022/12/03 07:20:41;;;;;;;61.00;23.50;;;;;;;0.30;88.41;101137.45;103302;1279;24233;-58
2022/12/03 07:23:13;;;;;;;56.10;21.70;;;;;;;0.31;88.38;101136.20;103418;1271;26689;-57
2022/12/03 07:25:44;;;;;;;61.40;22.10;;;;;;;0.32;88.32;101133.14;103461;1303;22682;-57
2022/12/03 07:28:16;;;;;;;58.60;21.60;;;;;;;0.32;88.36;101128.35;103339;1277;24398;-57
2022/12/03 07:30:48;;;;;;;62.10;23.70;;;;;;;0.33;88.35;101121.37;103333;1279;25620;-56
2022/12/03 07:33:20;;;;;;;68.30;24.10;;;;;;;0.34;88.45;101124.67;103414;1278;22471;-54
2022/12/03 07:35:52;;;;;;;61.50;23.60;;;;;;;0.34;88.32;101128.20;103408;1276;22452;-53
2022/12/03 07:38:23;;;;;;;81.50;30.70;;;;;;;0.33;88.41;101129.45;103341;1303;24263;-55
2022/12/03 07:40:55;;;;;;;113.50;46.80;;;;;;;0.33;88.38;101131.57;103450;1291;25158;-56
2022/12/03 07:43:26;;;;;;;112.00;41.40;;;;;;;0.33;88.43;101128.52;103514;1279;23906;-57
2022/12/03 07:45:58;;;;;;;105.60;38.60;;;;;;;0.34;88.49;101133.69;103371;1279;22484;-55
2022/12/03 07:48:29;;;;;;;90.60;31.80;;;;;;;0.35;88.48;101139.74;103420;1286;22586;-57
2022/12/03 07:51:01;;;;;;;78.30;31.50;;;;;;;0.33;88.45;101140.69;103309;1289;22528;-55
2022/12/03 07:53:34;;;;;;;85.50;37.40;;;;;;;0.32;88.47;101137.92;103430;1303;22466;-55
2022/12/03 07:56:07;;;;;;;89.80;40.00;;;;;;;0.33;88.56;101135.42;103417;1271;25471;-58
2022/12/03 07:58:39;;;;;;;92.90;37.60;;;;;;;0.33;88.61;101132.59;103282;1276;22476;-56
2022/12/03 08:01:10;;;;;;;89.60;32.20;;;;;;;0.35;88.70;101133.23;103090;1277;22499;-56
2022/12/03 08:03:42;;;;;;;93.40;34.50;;;;;;;0.38;88.68;101131.52;103390;1277;22610;-59
2022/12/03 08:06:14;;;;;;;69.10;25.40;;;;;;;0.39;88.65;101127.13;103342;1285;22463;-56
2022/12/03 08:08:45;;;;;;;75.90;29.30;;;;;;;0.41;88.50;101127.38;103379;1278;22452;-57
2022/12/03 08:11:17;;;;;;;90.80;35.60;;;;;;;0.43;88.59;101125.41;103210;1280;22487;-56
2022/12/03 08:13:49;;;;;;;92.70;35.10;;;;;;;0.46;88.53;101131.70;103330;1279;22472;-58
2022/12/03 08:16:22;;;;;;;82.90;31.90;;;;;;;0.47;88.53;101130.29;103443;1278;22549;-59
2022/12/03 08:18:56;;;;;;;92.40;35.30;;;;;;;0.48;88.60;101128.55;103372;1303;24435;-55
2022/12/03 08:21:34;;;;;;;75.50;30.40;;;;;;;0.51;88.74;101127.92;103309;1301;24245;-55
2022/12/03 08:24:15;;;;;;;76.50;28.20;;;;;;;0.54;88.73;101125.98;103281;1278;23255;-57
2022/12/03 08:26:48;;;;;;;97.70;43.40;;;;;;;0.56;88.56;101120.88;103558;1295;22477;-54
2022/12/03 08:29:21;;;;;;;91.60;38.30;;;;;;;0.57;88.55;101121.11;103419;1279;22828;-57
2022/12/03 08:31:55;;;;;;;72.60;29.20;;;;;;;0.57;88.54;101117.51;103288;1278;24238;-54
2022/12/03 08:34:33;;;;;;;65.60;27.10;;;;;;;0.56;88.51;101113.58;103342;1295;22533;-57
2022/12/03 08:37:15;;;;;;;64.40;25.80;;;;;;;0.57;88.63;101114.91;103267;1278;22530;-57
2022/12/03 08:39:49;;;;;;;63.00;23.80;;;;;;;0.61;88.66;101113.35;103357;1273;25474;-57
2022/12/03 08:42:42;;;;;;;68.60;24.70;;;;;;;0.64;88.59;101115.63;103303;1278;22594;-57
2022/12/03 08:45:41;;;;;;;63.90;24.80;;;;;;;0.67;88.56;101112.88;103218;1280;22462;-58
2022/12/03 08:48:31;;;;;;;72.30;27.90;;;;;;;0.66;88.44;101107.38;103251;1277;22987;-56
2022/12/03 08:51:09;;;;;;;100.50;37.20;;;;;;;0.69;88.39;101106.36;103674;1271;22469;-58
2022/12/03 08:53:46;;;;;;;86.90;35.10;;;;;;;0.71;88.55;101106.20;103266;1278;22478;-59
2022/12/03 08:56:25;;;;;;;82.10;33.60;;;;;;;0.74;88.57;101102.62;103120;1279;22660;-61
2022/12/03 08:58:58;;;;;;;76.20;28.40;;;;;;;0.77;88.52;101104.25;103368;1278;22589;-58
2022/12/03 09:01:37;;;;;;;59.80;26.70;;;;;;;0.78;88.38;101106.45;103418;1271;25200;-59
2022/12/03 09:04:29;;;;;;;69.30;25.50;;;;;;;0.79;88.51;101105.04;107077;1276;22262;-59
2022/12/03 09:07:00;;;;;;;72.30;27.70;;;;;;;0.82;88.50;101106.23;103180;1275;24342;-59
2022/12/03 09:09:33;;;;;;;73.40;27.60;;;;;;;0.87;88.56;101108.18;103176;1278;25444;-60
2022/12/03 09:12:05;;;;;;;75.80;28.10;;;;;;;0.89;88.43;101103.88;103273;1278;26869;-62
2022/12/03 09:14:37;;;;;;;95.10;35.70;;;;;;;0.91;88.52;101104.17;103208;1280;22512;-60
2022/12/03 09:17:08;;;;;;;126.70;48.30;;;;;;;0.95;88.53;101099.32;103352;1275;22473;-61
2022/12/03 09:19:43;;;;;;;96.60;41.20;;;;;;;0.98;88.48;101098.68;103398;1298;25578;-62
2022/12/03 09:22:16;;;;;;;87.40;35.10;;;;;;;1.02;88.43;101090.98;103291;1277;22491;-60
2022/12/03 09:24:47;;;;;;;84.90;30.30;;;;;;;1.05;88.41;101092.63;103332;1279;24305;-61
2022/12/03 09:27:19;;;;;;;70.00;28.60;;;;;;;1.07;88.28;101089.57;103176;1303;22706;-62
2022/12/03 09:29:51;;;;;;;69.50;28.20;;;;;;;1.09;88.34;101092.55;103248;1273;25456;-62
2022/12/03 09:32:22;;;;;;;90.70;34.50;;;;;;;1.13;88.18;101094.77;103245;1279;22493;-60
2022/12/03 09:34:54;;;;;;;123.90;51.40;;;;;;;1.14;88.24;101094.52;103271;1279;22593;-62
2022/12/03 09:37:25;;;;;;;88.40;35.50;;;;;;;1.17;88.36;101095.61;103662;1275;22492;-59
2022/12/03 09:39:57;;;;;;;85.20;32.30;;;;;;;1.19;88.24;101093.88;103393;1279;22532;-60
2022/12/03 09:42:29;;;;;;;83.10;32.90;;;;;;;1.21;88.23;101092.77;103328;1273;22480;-59
2022/12/03 09:45:01;;;;;;;77.40;32.00;;;;;;;1.23;88.13;101096.46;103367;1278;22485;-59
2022/12/03 09:47:34;;;;;;;69.40;29.80;;;;;;;1.25;88.17;101093.24;103349;1272;22979;-62
2022/12/03 09:50:07;;;;;;;73.30;29.00;;;;;;;1.26;88.19;101094.34;103522;1303;22580;-61
2022/12/03 09:52:38;;;;;;;63.20;27.10;;;;;;;1.29;88.06;101091.90;103339;1303;22496;-59
2022/12/03 09:55:18;;;;;;;83.70;35.20;;;;;;;1.32;88.13;101087.34;103256;1279;22480;-57
2022/12/03 09:57:51;;;;;;;101.80;36.70;;;;;;;1.34;88.15;101089.21;103408;1278;25578;-61
2022/12/03 10:00:24;;;;;;;90.70;35.60;;;;;;;1.36;88.13;101089.44;103600;1282;22461;-59
2022/12/03 10:03:01;;;;;;;97.40;36.70;;;;;;;1.37;88.09;101093.61;103934;1275;23398;-63
2022/12/03 10:05:34;;;;;;;107.50;41.30;;;;;;;1.39;88.03;101091.09;103284;1277;22598;-60
2022/12/03 10:08:10;;;;;;;94.60;36.90;;;;;;;1.41;88.11;101093.84;103401;1303;25332;-62
2022/12/03 10:10:42;;;;;;;79.00;33.30;;;;;;;1.42;87.94;101096.90;103370;1278;22751;-60
2022/12/03 10:13:17;;;;;;;82.00;32.90;;;;;;;1.43;88.08;101094.16;105254;1300;24318;-62
2022/12/03 10:15:48;;;;;;;92.40;35.70;;;;;;;1.46;88.08;101097.13;103311;1277;22595;-62
2022/12/03 10:18:22;;;;;;;119.10;45.00;;;;;;;1.49;88.06;101099.33;103736;1272;22498;-59
2022/12/03 10:20:54;;;;;;;115.50;45.10;;;;;;;1.51;88.06;101093.27;103205;1271;22481;-59
2022/12/03 10:23:28;;;;;;;114.60;43.30;;;;;;;1.54;88.11;101089.25;103420;1271;22481;-62
2022/12/03 10:26:02;;;;;;;103.20;38.10;;;;;;;1.57;88.06;101085.39;103337;1273;22729;-61
2022/12/03 10:28:36;;;;;;;87.20;34.60;;;;;;;1.60;87.81;101087.65;103244;1287;22502;-61
2022/12/03 10:31:10;;;;;;;110.00;42.50;;;;;;;1.61;87.87;101089.15;103175;1271;25326;-62
2022/12/03 10:33:44;;;;;;;89.70;35.90;;;;;;;1.61;87.84;101086.32;103143;1271;22474;-60
2022/12/03 10:36:22;;;;;;;93.70;37.80;;;;;;;1.64;87.86;101090.00;103140;1271;22619;-62
2022/12/03 10:39:14;;;;;;;91.30;35.70;;;;;;;1.67;87.83;101091.50;103150;1278;25357;-59
2022/12/03 10:41:47;;;;;;;89.70;35.80;;;;;;;1.69;87.81;101080.71;103291;1280;25659;-60
2022/12/03 10:44:21;;;;;;;94.10;36.90;;;;;;;1.69;87.79;101082.60;103114;1279;22621;-63
2022/12/03 10:47:08;;;;;;;93.30;38.20;;;;;;;1.71;87.84;101081.27;103641;1295;22473;-56
2022/12/03 10:49:40;;;;;;;96.90;38.30;;;;;;;1.73;87.79;101074.95;103299;1279;24299;-58
2022/12/03 10:52:21;;;;;;;87.90;35.50;;;;;;;1.74;87.69;101069.92;103332;1271;22657;-60
2022/12/03 10:54:53;;;;;;;76.90;33.00;;;;;;;1.77;87.72;101065.66;103353;1271;22560;-54
2022/12/03 10:57:25;;;;;;;73.90;29.10;;;;;;;1.79;87.69;101067.30;103500;1274;25337;-57
2022/12/03 10:59:56;;;;;;;72.90;30.40;;;;;;;1.81;87.74;101069.18;103324;1282;22577;-53
2022/12/03 11:02:28;;;;;;;78.20;33.10;;;;;;;1.84;87.91;101059.57;105868;1279;22597;-57
2022/12/03 11:04:59;;;;;;;84.10;34.40;;;;;;;1.88;87.86;101060.59;103372;1279;23871;-58
2022/12/03 11:07:32;;;;;;;78.40;31.80;;;;;;;1.92;87.73;101056.48;103714;1278;22468;-58
2022/12/03 11:10:05;;;;;;;76.00;31.40;;;;;;;1.95;87.61;101052.91;103406;1271;22592;-58
2022/12/03 11:12:36;;;;;;;74.60;31.80;;;;;;;1.97;87.64;101052.27;103656;1277;22508;-61
2022/12/03 11:15:16;;;;;;;88.40;37.20;;;;;;;2.00;87.49;101053.98;103265;1278;25329;-56
2022/12/03 11:17:52;;;;;;;78.50;33.80;;;;;;;2.03;87.50;101050.91;103317;1271;22495;-56
2022/12/03 11:21:09;;;;;;;84.00;34.90;;;;;;;2.04;87.43;101048.30;103368;1276;25356;-56
2022/12/03 11:24:15;;;;;;;92.80;35.50;;;;;;;2.06;87.51;101045.39;103311;1278;24333;-61
2022/12/03 11:27:22;;;;;;;100.60;37.30;;;;;;;2.10;87.44;101044.02;103250;1282;24375;-54
2022/12/03 11:30:01;;;;;;;86.70;33.30;;;;;;;2.11;87.60;101039.68;103440;1278;24381;-58
2022/12/03 11:33:01;;;;;;;82.40;31.20;;;;;;;2.14;87.47;101035.02;103346;1278;22627;-57
2022/12/03 11:35:59;;;;;;;78.10;31.70;;;;;;;2.17;87.34;101033.29;102816;1279;24691;-57
2022/12/03 11:38:46;;;;;;;70.30;30.70;;;;;;;2.19;87.46;101028.14;103312;1279;22479;-56
2022/12/03 11:41:19;;;;;;;82.60;31.50;;;;;;;2.24;87.48;101026.55;103293;1280;26695;-57
2022/12/03 11:44:28;;;;;;;76.50;31.60;;;;;;;2.25;87.33;101025.27;103017;1303;22486;-57
2022/12/03 11:47:14;;;;;;;69.90;30.60;;;;;;;2.28;87.27;101026.05;105318;1277;22478;-60
2022/12/03 11:49:51;;;;;;;77.60;30.20;;;;;;;2.31;87.20;101022.48;103348;1308;26251;-56
2022/12/03 11:52:33;;;;;;;81.60;31.20;;;;;;;2.33;87.22;101018.30;103679;1271;25315;-58
2022/12/03 11:55:18;;;;;;;78.70;31.60;;;;;;;2.36;87.11;101020.01;102711;1285;22487;-57
2022/12/03 11:57:56;;;;;;;72.90;29.90;;;;;;;2.36;86.88;101019.52;102804;1284;22528;-57
2022/12/03 12:00:28;;;;;;;72.40;29.70;;;;;;;2.38;87.09;101024.86;102749;1278;22568;-61